LSGSLSGG

Guest
Details From LSGS - Sion
To LSGG - Geneva
Flight Number -
Tags Generated
Created
Modified
Stats Distance 51 nm / 94 km
Max Altitude 0 ft / 0 m
Waypoints 2
Social Downloads 2
Likes 0
Share VATSIM

Download

Looking for another format? Having issues loading an existing format? Contact us
Advertisement - Login to hide

Notes

Generated

Route

LSGS LSGG

ID Type Via Altitude Latitude Longitude Leg Dist Tot Dist Heading (true) Name
O LSGS APT - 0 ft / 0 m 46.21854˚ 7.32108˚ - 0 nm - Sion
O LSGG APT - 0 ft / 0 m 46.23482˚ 6.09953˚ 50 nm 50 nm 272° / 271° -

Altitude Profile

Advertisement - Login to hide

LSGS

Details ICAO LSGS (SIR)
Name Sion
Region Switzerland
Timezone Europe/Zurich (UTC+2.0)
Stats Elevation 1,585 ft / 483 m (AMSL)
Location 46.218954° 7.324090°
Runways 2
Magnetic Variation 2.095° E

METAR

LSGS 231720Z 26010KT 220V280 9999 FEW060 BKN100 19/12 Q1017

Decode

TAF

Not found

Departure Runways

ID Width Length Bearing (true) Bearing (mag) Surface Threshold Offset Overrun Length
07L 98 ft / 30 m 2,167 ft / 661 m 72.83° 70.74° Grass 0 ft / 0 m 0 ft / 0 m
07R 131 ft / 40 m 6,605 ft / 2,013 m 72.84° 70.75° Asphalt 164 ft / 50 m 627 ft / 191 m
25L 131 ft / 40 m 6,605 ft / 2,013 m 252.86° 250.77° Asphalt 164 ft / 50 m 627 ft / 191 m
25R 98 ft / 30 m 2,167 ft / 661 m 252.83° 250.74° Grass 328 ft / 100 m 0 ft / 0 m

LSGG

Details ICAO LSGG (GVA)
Name Geneva
Region Switzerland
Timezone Europe/Zurich (UTC+2.0)
Stats Elevation 1,410 ft / 430 m (AMSL)
Location 46.237755° 6.106173°
Runways 2
Magnetic Variation 1.790° E

METAR

LSGG 231720Z 27005KT 240V300 9999 FEW010 SCT018 BKN150 18/14 Q1018 NOSIG

Decode

TAF

TAF TAF LSGG 231425Z 2315/2421 VRB03KT 9999 -SHRA FEW030TCU SCT040 BKN080 TX21/2315Z TN11/2405Z TX25/2415Z PROB40 TEMPO 2315/2318 SHRA BECMG 2318/2320 SCT035 PROB30 TEMPO 2403/2407 1500 BCFG

Decode

Destination Runways

ID Width Length Bearing (true) Bearing (mag) Surface Threshold Offset Overrun Length
05 180 ft / 55 m 12,796 ft / 3,900 m 45.43° 43.64° Concrete 1,079 ft / 329 m 66 ft / 20 m
05L 98 ft / 30 m 2,701 ft / 823 m 45.44° 43.65° Grass 610 ft / 186 m 0 ft / 0 m
23 180 ft / 55 m 12,796 ft / 3,900 m 225.45° 223.66° Concrete 0 ft / 0 m 66 ft / 20 m
23R 98 ft / 30 m 2,701 ft / 823 m 225.45° 223.66° Grass 997 ft / 304 m 0 ft / 0 m

Approach Navaids

Runway Type Ident Frequency Range Bearing (true) Bearing (mag) Slope Elevation
05 Localiser INE 110.90 MHz 18 nm / 33 km 45.45° 43.66° - 1,407 ft / 429 m (AMSL)
05 Glidescope INE 110.90 MHz 18 nm / 33 km 45.45° 43.66° 3.00° 1,460 ft / 445 m (AMSL)
05 DME INE 110.90 MHz 27 nm / 50 km - - - 1,460 ft / 445 m (AMSL)
23 Localiser ISW 109.90 MHz 20 nm / 37 km 225.43° 223.64° - 1,363 ft / 415 m (AMSL)
23 Glidescope ISW 109.90 MHz 20 nm / 37 km 225.43° 223.64° 3.00° 1,384 ft / 422 m (AMSL)
23 DME ISW 109.90 MHz 30 nm / 56 km - - - 1,384 ft / 422 m (AMSL)

Popular Alternatives